Terminal Aerodrome Forecast
Issued by NWS

Home | Current Version | Previous Version | Text Only | Print | Product List | Glossary On
Versions: 1 2 3 4 5 6 7 8 9 10 11 12
210
FTUS45 KABQ 061139
TAFTCC
TAF
KTCC 061139Z 0612/0712 20010KT P6SM SCT250
     FM061500 20013G23KT P6SM FEW120
     FM061900 19022G32KT P6SM SCT100
     FM070200 16015G25KT P6SM SKC=

USA.gov is the U.S. government's official web portal to all federal, state and local government web resources and services.